Bettles Airport Bettles US
ICAO: PABT
IATA:
Category: Medium
Scheduled Services:

Elevation: 647 ft
TransAlt. 18000 ft.

Airport Communications:
ASOS:135.45
ANCHORAGE CNTR:124.6
CTAF:122.9
FAIRBANKS RDO:122.2
TWEB:116

PABT Zoom In..

Runways:

(A) RW 01 length 5190 ft width 150 ft
LOC 108.70 / hdg 12

(B) RW 19 length 5190 ft width 150 ft
LOC 108.70 / hdg 192

Location; PABT
Day. 16 / Time. 17.53 Zulu
* Altimeter: 29.73
* Temperature: 12° c. 53.6°f.
* Wind from: 230° Speed 06 kn.
Dewpoint: 07° c.
Visibility: 10 Statute Miles.
Clouds: Few 1700 ft.
Clouds: Broken 6000 ft.
Clouds: Overcast 8000 ft.
Conditions: Light Rain.

PABT 161753Z 23006KT 10SM -RA FEW017 BKN060 OVC080 12/07 A2973 RMK RAE23B52 SLP074 P0000 60000 T01170072 10117 20089 53007 VIA AUTODIAL


Wind From 230°
Speed 06 kn.

 
 
jpsmedia.com for Web Design worldairports.se 2018   terms of use